Miami, Indiana
Current Conditions -  °F | °C
As of 10:58 PM on Saturday 24 Jan 2015 (Local Time) from KGUS Reporting Station
Few Clouds Few Clouds  
Wind Chill: 26°   Ceiling: Unl
Heat Index: 33°   Visibility: 10mi
Dew Point: 31°   Wind: 8mph
Humidity: 94%   Direction: 230°SW
Pressure: 29.7"   Gusts: NA
Location:  40.61°N, 86.11°W
Report Text: KGUS 250358Z AUTO 23007KT 10SM FEW150 00/00 A2970 RMK AO2 SLP068 T00041004
Loading
Personal Weather Stations






























Interactive Weather Map New forecast layout! Learn more

10-Day Weather Forecast

Advertisements
Track Severe Weather on mobile